sensor_id;sensor_type;location;lat;lon;timestamp;temperature;humidity
1347;DHT22;667;48.796;9.480;2023-08-17T00:02:16;22.60;89.50
1347;DHT22;667;48.796;9.480;2023-08-17T00:04:42;22.50;89.30
1347;DHT22;667;48.796;9.480;2023-08-17T00:07:07;22.50;89.30
1347;DHT22;667;48.796;9.480;2023-08-17T00:09:33;22.50;89.30
1347;DHT22;667;48.796;9.480;2023-08-17T00:11:59;22.50;89.20
1347;DHT22;667;48.796;9.480;2023-08-17T00:14:25;22.50;89.10
1347;DHT22;667;48.796;9.480;2023-08-17T00:16:51;22.50;89.00
1347;DHT22;667;48.796;9.480;2023-08-17T00:19:16;22.50;89.00
1347;DHT22;667;48.796;9.480;2023-08-17T00:21:44;22.50;89.00
1347;DHT22;667;48.796;9.480;2023-08-17T00:24:11;22.40;88.90
1347;DHT22;667;48.796;9.480;2023-08-17T00:26:37;22.40;88.80
1347;DHT22;667;48.796;9.480;2023-08-17T00:29:03;22.40;88.80
1347;DHT22;667;48.796;9.480;2023-08-17T00:31:29;22.40;88.60
1347;DHT22;667;48.796;9.480;2023-08-17T00:33:55;22.40;88.70
1347;DHT22;667;48.796;9.480;2023-08-17T00:36:20;22.40;88.80
1347;DHT22;667;48.796;9.480;2023-08-17T00:38:46;22.40;88.80
1347;DHT22;667;48.796;9.480;2023-08-17T00:41:11;22.30;88.70
1347;DHT22;667;48.796;9.480;2023-08-17T00:43:37;22.30;88.70
1347;DHT22;667;48.796;9.480;2023-08-17T00:46:03;22.30;88.70
1347;DHT22;667;48.796;9.480;2023-08-17T00:48:29;22.30;88.70
1347;DHT22;667;48.796;9.480;2023-08-17T00:50:56;22.30;88.70
1347;DHT22;667;48.796;9.480;2023-08-17T00:53:23;22.30;88.70
1347;DHT22;667;48.796;9.480;2023-08-17T00:55:50;22.30;88.70
1347;DHT22;667;48.796;9.480;2023-08-17T00:58:17;22.20;88.50
1347;DHT22;667;48.796;9.480;2023-08-17T01:00:42;22.20;88.60
1347;DHT22;667;48.796;9.480;2023-08-17T01:03:08;22.20;88.50
1347;DHT22;667;48.796;9.480;2023-08-17T01:05:34;22.20;88.40
1347;DHT22;667;48.796;9.480;2023-08-17T01:08:00;22.20;88.40
1347;DHT22;667;48.796;9.480;2023-08-17T01:10:41;22.20;88.40
1347;DHT22;667;48.796;9.480;2023-08-17T01:13:15;22.10;88.30
1347;DHT22;667;48.796;9.480;2023-08-17T01:15:49;22.10;88.50
1347;DHT22;667;48.796;9.480;2023-08-17T01:18:29;22.10;88.70
1347;DHT22;667;48.796;9.480;2023-08-17T01:20:57;22.10;88.60
1347;DHT22;667;48.796;9.480;2023-08-17T01:23:22;22.10;88.60
1347;DHT22;667;48.796;9.480;2023-08-17T01:25:48;22.10;88.70
1347;DHT22;667;48.796;9.480;2023-08-17T01:28:14;22.00;88.50
1347;DHT22;667;48.796;9.480;2023-08-17T01:33:14;22.00;88.60
1347;DHT22;667;48.796;9.480;2023-08-17T01:35:54;22.00;88.50
1347;DHT22;667;48.796;9.480;2023-08-17T01:38:25;22.00;88.60
1347;DHT22;667;48.796;9.480;2023-08-17T01:40:52;22.00;88.60
1347;DHT22;667;48.796;9.480;2023-08-17T01:43:19;22.00;88.50
1347;DHT22;667;48.796;9.480;2023-08-17T01:45:45;22.00;88.20
1347;DHT22;667;48.796;9.480;2023-08-17T01:48:11;21.90;88.10
1347;DHT22;667;48.796;9.480;2023-08-17T01:50:37;21.90;88.00
1347;DHT22;667;48.796;9.480;2023-08-17T01:53:02;21.90;88.10
1347;DHT22;667;48.796;9.480;2023-08-17T01:55:28;21.90;88.10
1347;DHT22;667;48.796;9.480;2023-08-17T01:57:53;21.90;88.20
1347;DHT22;667;48.796;9.480;2023-08-17T02:00:19;21.80;88.20
1347;DHT22;667;48.796;9.480;2023-08-17T02:02:45;21.80;88.90
1347;DHT22;667;48.796;9.480;2023-08-17T02:05:10;21.80;88.20
1347;DHT22;667;48.796;9.480;2023-08-17T02:07:36;21.80;88.40
1347;DHT22;667;48.796;9.480;2023-08-17T02:10:01;21.80;88.40
1347;DHT22;667;48.796;9.480;2023-08-17T02:12:27;21.70;88.20
1347;DHT22;667;48.796;9.480;2023-08-17T02:14:52;21.70;88.40
1347;DHT22;667;48.796;9.480;2023-08-17T02:17:19;21.70;88.40
1347;DHT22;667;48.796;9.480;2023-08-17T02:19:46;21.70;88.60
1347;DHT22;667;48.796;9.480;2023-08-17T02:22:13;21.70;88.30
1347;DHT22;667;48.796;9.480;2023-08-17T02:24:38;21.70;88.50
1347;DHT22;667;48.796;9.480;2023-08-17T02:27:04;21.70;88.70
1347;DHT22;667;48.796;9.480;2023-08-17T02:29:30;21.70;88.70
1347;DHT22;667;48.796;9.480;2023-08-17T02:31:55;21.70;88.70
1347;DHT22;667;48.796;9.480;2023-08-17T02:34:21;21.70;88.40
1347;DHT22;667;48.796;9.480;2023-08-17T02:36:46;21.70;88.40
1347;DHT22;667;48.796;9.480;2023-08-17T02:39:12;21.70;88.20
1347;DHT22;667;48.796;9.480;2023-08-17T02:41:37;21.70;88.30
1347;DHT22;667;48.796;9.480;2023-08-17T02:44:03;21.60;88.20
1347;DHT22;667;48.796;9.480;2023-08-17T02:46:29;21.60;88.20
1347;DHT22;667;48.796;9.480;2023-08-17T02:48:54;21.60;88.10
1347;DHT22;667;48.796;9.480;2023-08-17T02:51:20;21.60;88.20
1347;DHT22;667;48.796;9.480;2023-08-17T02:53:46;21.60;88.20
1347;DHT22;667;48.796;9.480;2023-08-17T02:56:11;21.60;88.20
1347;DHT22;667;48.796;9.480;2023-08-17T02:58:40;21.60;88.00
1347;DHT22;667;48.796;9.480;2023-08-17T03:01:09;21.60;88.80
1347;DHT22;667;48.796;9.480;2023-08-17T03:03:35;21.50;88.20
1347;DHT22;667;48.796;9.480;2023-08-17T03:06:04;21.50;88.20
1347;DHT22;667;48.796;9.480;2023-08-17T03:08:30;21.50;88.20
1347;DHT22;667;48.796;9.480;2023-08-17T03:10:55;21.50;88.30
1347;DHT22;667;48.796;9.480;2023-08-17T03:13:21;21.50;88.50
1347;DHT22;667;48.796;9.480;2023-08-17T03:15:46;21.50;88.50
1347;DHT22;667;48.796;9.480;2023-08-17T03:18:12;21.50;88.70
1347;DHT22;667;48.796;9.480;2023-08-17T03:20:37;21.50;88.90
1347;DHT22;667;48.796;9.480;2023-08-17T03:23:03;21.50;89.10
1347;DHT22;667;48.796;9.480;2023-08-17T03:25:32;21.50;89.20
1347;DHT22;667;48.796;9.480;2023-08-17T03:27:59;21.50;89.40
1347;DHT22;667;48.796;9.480;2023-08-17T03:30:24;21.50;89.50
1347;DHT22;667;48.796;9.480;2023-08-17T03:32:50;21.50;89.70
1347;DHT22;667;48.796;9.480;2023-08-17T03:35:15;21.50;89.90
1347;DHT22;667;48.796;9.480;2023-08-17T03:37:41;21.50;89.90
1347;DHT22;667;48.796;9.480;2023-08-17T03:40:07;21.50;90.00
1347;DHT22;667;48.796;9.480;2023-08-17T03:42:33;21.50;90.00
1347;DHT22;667;48.796;9.480;2023-08-17T03:44:58;21.50;90.10
1347;DHT22;667;48.796;9.480;2023-08-17T03:47:24;21.50;90.20
1347;DHT22;667;48.796;9.480;2023-08-17T03:49:51;21.50;90.30
1347;DHT22;667;48.796;9.480;2023-08-17T03:52:16;21.60;90.30
1347;DHT22;667;48.796;9.480;2023-08-17T03:54:42;21.60;90.30
1347;DHT22;667;48.796;9.480;2023-08-17T03:57:08;21.60;90.40
1347;DHT22;667;48.796;9.480;2023-08-17T03:59:33;21.60;90.40
1347;DHT22;667;48.796;9.480;2023-08-17T04:01:59;21.60;90.50
1347;DHT22;667;48.796;9.480;2023-08-17T04:04:24;21.60;90.50
1347;DHT22;667;48.796;9.480;2023-08-17T04:06:50;21.60;90.50
1347;DHT22;667;48.796;9.480;2023-08-17T04:09:15;21.60;90.50
1347;DHT22;667;48.796;9.480;2023-08-17T04:11:41;21.60;90.50
1347;DHT22;667;48.796;9.480;2023-08-17T04:14:06;21.70;90.70
1347;DHT22;667;48.796;9.480;2023-08-17T04:16:34;21.70;90.70
1347;DHT22;667;48.796;9.480;2023-08-17T04:19:00;21.70;90.80
1347;DHT22;667;48.796;9.480;2023-08-17T04:21:25;21.70;90.90
1347;DHT22;667;48.796;9.480;2023-08-17T04:23:51;21.70;91.10
1347;DHT22;667;48.796;9.480;2023-08-17T04:26:16;21.70;91.20
1347;DHT22;667;48.796;9.480;2023-08-17T04:28:42;21.70;91.30
1347;DHT22;667;48.796;9.480;2023-08-17T04:31:07;21.70;91.30
1347;DHT22;667;48.796;9.480;2023-08-17T04:33:33;21.70;91.40
1347;DHT22;667;48.796;9.480;2023-08-17T04:35:59;21.70;91.50
1347;DHT22;667;48.796;9.480;2023-08-17T04:38:26;21.70;91.60
1347;DHT22;667;48.796;9.480;2023-08-17T04:40:52;21.80;91.60
1347;DHT22;667;48.796;9.480;2023-08-17T04:43:17;21.80;91.70
1347;DHT22;667;48.796;9.480;2023-08-17T04:45:43;21.80;91.70
1347;DHT22;667;48.796;9.480;2023-08-17T04:48:09;21.80;91.70
1347;DHT22;667;48.796;9.480;2023-08-17T04:50:35;21.80;91.70
1347;DHT22;667;48.796;9.480;2023-08-17T04:53:01;21.80;91.80
1347;DHT22;667;48.796;9.480;2023-08-17T04:55:26;21.80;91.80
1347;DHT22;667;48.796;9.480;2023-08-17T04:57:52;21.80;91.80
1347;DHT22;667;48.796;9.480;2023-08-17T05:00:17;21.80;91.80
1347;DHT22;667;48.796;9.480;2023-08-17T05:02:45;21.70;91.80
1347;DHT22;667;48.796;9.480;2023-08-17T05:05:12;21.70;92.00
1347;DHT22;667;48.796;9.480;2023-08-17T05:07:38;21.70;92.20
1347;DHT22;667;48.796;9.480;2023-08-17T05:10:04;21.70;92.30
1347;DHT22;667;48.796;9.480;2023-08-17T05:12:29;21.70;92.30
1347;DHT22;667;48.796;9.480;2023-08-17T05:14:55;21.70;92.40
1347;DHT22;667;48.796;9.480;2023-08-17T05:17:20;21.70;92.50
1347;DHT22;667;48.796;9.480;2023-08-17T05:19:46;21.70;92.50
1347;DHT22;667;48.796;9.480;2023-08-17T05:22:12;21.70;92.40
1347;DHT22;667;48.796;9.480;2023-08-17T05:24:39;21.70;92.50
1347;DHT22;667;48.796;9.480;2023-08-17T05:27:05;21.80;92.50
1347;DHT22;667;48.796;9.480;2023-08-17T05:29:31;21.80;92.60
1347;DHT22;667;48.796;9.480;2023-08-17T05:31:59;21.80;92.60
1347;DHT22;667;48.796;9.480;2023-08-17T05:34:25;21.80;92.70
1347;DHT22;667;48.796;9.480;2023-08-17T05:36:50;21.80;92.70
1347;DHT22;667;48.796;9.480;2023-08-17T05:39:16;21.80;92.60
1347;DHT22;667;48.796;9.480;2023-08-17T05:41:42;21.80;92.60
1347;DHT22;667;48.796;9.480;2023-08-17T05:44:07;21.80;92.60
1347;DHT22;667;48.796;9.480;2023-08-17T05:46:33;21.80;92.50
1347;DHT22;667;48.796;9.480;2023-08-17T05:49:00;21.80;92.60
1347;DHT22;667;48.796;9.480;2023-08-17T05:51:26;21.80;92.80
1347;DHT22;667;48.796;9.480;2023-08-17T05:53:51;21.80;92.90
1347;DHT22;667;48.796;9.480;2023-08-17T05:56:17;21.80;93.10
1347;DHT22;667;48.796;9.480;2023-08-17T05:58:43;21.80;93.10
1347;DHT22;667;48.796;9.480;2023-08-17T06:01:10;21.90;93.10
1347;DHT22;667;48.796;9.480;2023-08-17T06:03:36;21.90;93.10
1347;DHT22;667;48.796;9.480;2023-08-17T06:06:03;22.00;93.20
1347;DHT22;667;48.796;9.480;2023-08-17T06:08:29;21.90;93.10
1347;DHT22;667;48.796;9.480;2023-08-17T06:10:55;22.00;93.20
1347;DHT22;667;48.796;9.480;2023-08-17T06:13:21;22.00;93.20
1347;DHT22;667;48.796;9.480;2023-08-17T06:15:46;22.00;93.30
1347;DHT22;667;48.796;9.480;2023-08-17T06:18:12;22.00;93.40
1347;DHT22;667;48.796;9.480;2023-08-17T06:20:38;22.10;93.50
1347;DHT22;667;48.796;9.480;2023-08-17T06:23:03;22.00;93.20
1347;DHT22;667;48.796;9.480;2023-08-17T06:25:29;22.00;93.10
1347;DHT22;667;48.796;9.480;2023-08-17T06:27:54;22.00;93.30
1347;DHT22;667;48.796;9.480;2023-08-17T06:30:21;22.00;93.30
1347;DHT22;667;48.796;9.480;2023-08-17T06:32:46;22.00;93.30
1347;DHT22;667;48.796;9.480;2023-08-17T06:35:12;22.10;93.20
1347;DHT22;667;48.796;9.480;2023-08-17T06:37:37;22.00;93.20
1347;DHT22;667;48.796;9.480;2023-08-17T06:40:04;22.00;93.20
1347;DHT22;667;48.796;9.480;2023-08-17T06:42:30;22.00;93.40
1347;DHT22;667;48.796;9.480;2023-08-17T06:44:56;22.00;93.60
1347;DHT22;667;48.796;9.480;2023-08-17T06:47:22;22.10;93.70
1347;DHT22;667;48.796;9.480;2023-08-17T06:49:47;22.10;93.70
1347;DHT22;667;48.796;9.480;2023-08-17T06:52:13;22.10;93.60
1347;DHT22;667;48.796;9.480;2023-08-17T06:54:38;22.10;93.50
1347;DHT22;667;48.796;9.480;2023-08-17T06:57:04;22.20;93.50
1347;DHT22;667;48.796;9.480;2023-08-17T06:59:30;22.20;93.50
1347;DHT22;667;48.796;9.480;2023-08-17T07:01:56;22.20;93.40
1347;DHT22;667;48.796;9.480;2023-08-17T07:04:22;22.20;93.40
1347;DHT22;667;48.796;9.480;2023-08-17T07:06:48;22.30;93.40
1347;DHT22;667;48.796;9.480;2023-08-17T07:09:14;22.30;93.40
1347;DHT22;667;48.796;9.480;2023-08-17T07:11:40;22.30;93.30
1347;DHT22;667;48.796;9.480;2023-08-17T07:14:06;22.40;93.30
1347;DHT22;667;48.796;9.480;2023-08-17T07:16:32;22.40;93.30
1347;DHT22;667;48.796;9.480;2023-08-17T07:18:58;22.40;93.20
1347;DHT22;667;48.796;9.480;2023-08-17T07:21:23;22.40;93.20
1347;DHT22;667;48.796;9.480;2023-08-17T07:23:50;22.40;93.20
1347;DHT22;667;48.796;9.480;2023-08-17T07:26:15;22.40;93.20
1347;DHT22;667;48.796;9.480;2023-08-17T07:28:41;22.40;93.30
1347;DHT22;667;48.796;9.480;2023-08-17T07:31:07;22.40;93.30
1347;DHT22;667;48.796;9.480;2023-08-17T07:33:32;22.40;93.20
1347;DHT22;667;48.796;9.480;2023-08-17T07:35:58;22.50;93.20
1347;DHT22;667;48.796;9.480;2023-08-17T07:38:24;22.50;93.10
1347;DHT22;667;48.796;9.480;2023-08-17T07:40:49;22.60;93.20
1347;DHT22;667;48.796;9.480;2023-08-17T07:43:15;22.60;93.20
1347;DHT22;667;48.796;9.480;2023-08-17T07:45:40;22.70;93.30
1347;DHT22;667;48.796;9.480;2023-08-17T07:48:06;22.80;93.30
1347;DHT22;667;48.796;9.480;2023-08-17T07:50:32;22.80;93.30
1347;DHT22;667;48.796;9.480;2023-08-17T07:52:57;22.90;93.40
1347;DHT22;667;48.796;9.480;2023-08-17T07:55:23;23.00;93.20
1347;DHT22;667;48.796;9.480;2023-08-17T07:57:48;23.00;93.10
1347;DHT22;667;48.796;9.480;2023-08-17T08:00:14;23.20;93.10
1347;DHT22;667;48.796;9.480;2023-08-17T08:02:40;23.20;92.90
1347;DHT22;667;48.796;9.480;2023-08-17T08:05:06;23.30;92.70
1347;DHT22;667;48.796;9.480;2023-08-17T08:07:31;23.30;92.60
1347;DHT22;667;48.796;9.480;2023-08-17T08:09:57;23.40;92.70
1347;DHT22;667;48.796;9.480;2023-08-17T08:12:23;23.40;92.60
1347;DHT22;667;48.796;9.480;2023-08-17T08:14:49;23.50;92.50
1347;DHT22;667;48.796;9.480;2023-08-17T08:17:14;23.60;92.40
1347;DHT22;667;48.796;9.480;2023-08-17T08:19:40;23.60;92.20
1347;DHT22;667;48.796;9.480;2023-08-17T08:22:05;23.70;92.10
1347;DHT22;667;48.796;9.480;2023-08-17T08:24:31;23.70;92.10
1347;DHT22;667;48.796;9.480;2023-08-17T08:27:00;23.80;91.90
1347;DHT22;667;48.796;9.480;2023-08-17T08:29:26;23.90;91.70
1347;DHT22;667;48.796;9.480;2023-08-17T08:31:52;23.90;91.60
1347;DHT22;667;48.796;9.480;2023-08-17T08:34:18;23.90;91.40
1347;DHT22;667;48.796;9.480;2023-08-17T08:36:44;24.00;91.30
1347;DHT22;667;48.796;9.480;2023-08-17T08:39:09;24.00;91.10
1347;DHT22;667;48.796;9.480;2023-08-17T08:41:37;24.10;91.00
1347;DHT22;667;48.796;9.480;2023-08-17T08:44:03;24.10;90.90
1347;DHT22;667;48.796;9.480;2023-08-17T08:46:30;24.10;90.90
1347;DHT22;667;48.796;9.480;2023-08-17T08:48:56;24.20;90.90
1347;DHT22;667;48.796;9.480;2023-08-17T08:51:26;24.20;90.90
1347;DHT22;667;48.796;9.480;2023-08-17T08:54:00;24.30;90.90
1347;DHT22;667;48.796;9.480;2023-08-17T08:56:30;24.30;90.80
1347;DHT22;667;48.796;9.480;2023-08-17T08:59:00;24.30;90.60
1347;DHT22;667;48.796;9.480;2023-08-17T09:01:26;24.30;90.60
1347;DHT22;667;48.796;9.480;2023-08-17T09:03:52;24.40;90.60
1347;DHT22;667;48.796;9.480;2023-08-17T09:06:19;24.40;90.60
1347;DHT22;667;48.796;9.480;2023-08-17T09:08:47;24.50;90.60
1347;DHT22;667;48.796;9.480;2023-08-17T09:11:14;24.60;90.70
1347;DHT22;667;48.796;9.480;2023-08-17T09:13:40;24.60;90.70
1347;DHT22;667;48.796;9.480;2023-08-17T09:16:05;24.70;90.60
1347;DHT22;667;48.796;9.480;2023-08-17T09:18:31;24.80;90.80
1347;DHT22;667;48.796;9.480;2023-08-17T09:20:56;24.80;90.50
1347;DHT22;667;48.796;9.480;2023-08-17T09:23:22;24.90;90.20
1347;DHT22;667;48.796;9.480;2023-08-17T09:25:49;25.00;90.10
1347;DHT22;667;48.796;9.480;2023-08-17T09:28:18;25.10;89.40
1347;DHT22;667;48.796;9.480;2023-08-17T09:30:55;25.10;88.90
1347;DHT22;667;48.796;9.480;2023-08-17T09:33:29;25.20;88.60
1347;DHT22;667;48.796;9.480;2023-08-17T09:35:55;25.30;88.50
1347;DHT22;667;48.796;9.480;2023-08-17T09:38:21;25.40;88.80
1347;DHT22;667;48.796;9.480;2023-08-17T09:40:47;25.50;89.00
1347;DHT22;667;48.796;9.480;2023-08-17T09:43:17;25.60;88.50
1347;DHT22;667;48.796;9.480;2023-08-17T09:45:44;25.70;87.60
1347;DHT22;667;48.796;9.480;2023-08-17T09:48:14;25.90;87.40
1347;DHT22;667;48.796;9.480;2023-08-17T09:50:41;26.00;87.10
1347;DHT22;667;48.796;9.480;2023-08-17T09:53:07;26.10;87.00
1347;DHT22;667;48.796;9.480;2023-08-17T09:55:32;26.20;86.90
1347;DHT22;667;48.796;9.480;2023-08-17T09:57:59;26.30;86.30
1347;DHT22;667;48.796;9.480;2023-08-17T10:00:27;26.40;85.10
1347;DHT22;667;48.796;9.480;2023-08-17T10:02:53;26.50;84.90
1347;DHT22;667;48.796;9.480;2023-08-17T10:05:20;26.60;85.10
1347;DHT22;667;48.796;9.480;2023-08-17T10:07:51;26.70;85.70
1347;DHT22;667;48.796;9.480;2023-08-17T10:10:22;26.80;84.40
1347;DHT22;667;48.796;9.480;2023-08-17T10:15:34;27.00;83.10
1347;DHT22;667;48.796;9.480;2023-08-17T10:18:17;27.10;81.90
1347;DHT22;667;48.796;9.480;2023-08-17T10:20:56;27.20;81.50
1347;DHT22;667;48.796;9.480;2023-08-17T10:23:25;27.30;82.00
1347;DHT22;667;48.796;9.480;2023-08-17T10:25:52;27.40;81.70
1347;DHT22;667;48.796;9.480;2023-08-17T10:28:22;27.40;81.70
1347;DHT22;667;48.796;9.480;2023-08-17T10:30:48;27.60;82.00
1347;DHT22;667;48.796;9.480;2023-08-17T10:33:14;27.70;81.10
1347;DHT22;667;48.796;9.480;2023-08-17T10:35:41;27.80;79.90
1347;DHT22;667;48.796;9.480;2023-08-17T10:38:08;27.90;79.70
1347;DHT22;667;48.796;9.480;2023-08-17T10:40:39;28.00;79.30
1347;DHT22;667;48.796;9.480;2023-08-17T10:43:05;28.00;79.00
1347;DHT22;667;48.796;9.480;2023-08-17T10:45:32;28.10;79.10
1347;DHT22;667;48.796;9.480;2023-08-17T10:50:38;28.20;77.50
1347;DHT22;667;48.796;9.480;2023-08-17T10:53:13;28.30;77.10
1347;DHT22;667;48.796;9.480;2023-08-17T10:55:44;28.40;77.00
1347;DHT22;667;48.796;9.480;2023-08-17T10:58:10;28.50;77.10
1347;DHT22;667;48.796;9.480;2023-08-17T11:00:39;28.50;76.70
1347;DHT22;667;48.796;9.480;2023-08-17T11:03:19;28.60;76.50
1347;DHT22;667;48.796;9.480;2023-08-17T11:05:52;28.60;75.60
1347;DHT22;667;48.796;9.480;2023-08-17T11:08:38;28.60;75.80
1347;DHT22;667;48.796;9.480;2023-08-17T11:11:12;28.70;74.30
1347;DHT22;667;48.796;9.480;2023-08-17T11:13:43;28.70;74.00
1347;DHT22;667;48.796;9.480;2023-08-17T11:16:11;28.80;74.10
1347;DHT22;667;48.796;9.480;2023-08-17T11:18:38;28.90;74.80
1347;DHT22;667;48.796;9.480;2023-08-17T11:21:05;28.90;74.80
1347;DHT22;667;48.796;9.480;2023-08-17T11:23:32;29.00;74.50
1347;DHT22;667;48.796;9.480;2023-08-17T11:25:59;29.10;73.30
1347;DHT22;667;48.796;9.480;2023-08-17T11:28:25;29.20;72.80
1347;DHT22;667;48.796;9.480;2023-08-17T11:31:01;29.20;73.10
1347;DHT22;667;48.796;9.480;2023-08-17T11:33:28;29.40;73.70
1347;DHT22;667;48.796;9.480;2023-08-17T11:35:58;29.40;73.20
1347;DHT22;667;48.796;9.480;2023-08-17T11:38:24;29.50;72.90
1347;DHT22;667;48.796;9.480;2023-08-17T11:40:50;29.60;71.20
1347;DHT22;667;48.796;9.480;2023-08-17T11:43:16;29.60;70.70
1347;DHT22;667;48.796;9.480;2023-08-17T11:45:42;29.70;71.80
1347;DHT22;667;48.796;9.480;2023-08-17T11:48:08;29.70;70.30
1347;DHT22;667;48.796;9.480;2023-08-17T11:50:34;29.70;69.30
1347;DHT22;667;48.796;9.480;2023-08-17T11:53:00;29.60;68.40
1347;DHT22;667;48.796;9.480;2023-08-17T11:55:26;29.70;68.50
1347;DHT22;667;48.796;9.480;2023-08-17T11:57:52;29.60;68.60
1347;DHT22;667;48.796;9.480;2023-08-17T12:00:19;29.60;69.50
1347;DHT22;667;48.796;9.480;2023-08-17T12:02:49;29.60;69.10
1347;DHT22;667;48.796;9.480;2023-08-17T12:05:25;29.70;69.10
1347;DHT22;667;48.796;9.480;2023-08-17T12:07:54;29.70;68.20
1347;DHT22;667;48.796;9.480;2023-08-17T12:10:20;29.70;68.70
1347;DHT22;667;48.796;9.480;2023-08-17T12:12:48;29.70;68.80
1347;DHT22;667;48.796;9.480;2023-08-17T12:15:16;29.60;68.60
1347;DHT22;667;48.796;9.480;2023-08-17T12:17:49;29.60;68.80
1347;DHT22;667;48.796;9.480;2023-08-17T12:20:24;29.60;69.50
1347;DHT22;667;48.796;9.480;2023-08-17T12:22:50;29.60;69.70
1347;DHT22;667;48.796;9.480;2023-08-17T12:25:15;29.60;68.90
1347;DHT22;667;48.796;9.480;2023-08-17T12:27:41;29.60;68.90
1347;DHT22;667;48.796;9.480;2023-08-17T12:30:23;29.60;69.30
1347;DHT22;667;48.796;9.480;2023-08-17T12:32:49;29.60;69.20
1347;DHT22;667;48.796;9.480;2023-08-17T12:35:15;29.50;69.00
1347;DHT22;667;48.796;9.480;2023-08-17T12:37:41;29.40;68.90
1347;DHT22;667;48.796;9.480;2023-08-17T12:40:07;29.30;68.70
1347;DHT22;667;48.796;9.480;2023-08-17T12:42:33;29.20;69.10
1347;DHT22;667;48.796;9.480;2023-08-17T12:44:59;29.20;69.40
1347;DHT22;667;48.796;9.480;2023-08-17T12:47:24;29.10;69.60
1347;DHT22;667;48.796;9.480;2023-08-17T12:49:50;29.00;70.20
1347;DHT22;667;48.796;9.480;2023-08-17T12:52:15;28.90;70.60
1347;DHT22;667;48.796;9.480;2023-08-17T12:54:41;28.90;71.00
1347;DHT22;667;48.796;9.480;2023-08-17T12:57:07;28.80;71.90
1347;DHT22;667;48.796;9.480;2023-08-17T12:59:32;28.70;72.80
1347;DHT22;667;48.796;9.480;2023-08-17T13:01:58;28.70;73.20
1347;DHT22;667;48.796;9.480;2023-08-17T13:04:24;28.60;73.30
1347;DHT22;667;48.796;9.480;2023-08-17T13:06:49;28.60;73.60
1347;DHT22;667;48.796;9.480;2023-08-17T13:09:16;28.50;73.80
1347;DHT22;667;48.796;9.480;2023-08-17T13:11:44;28.40;74.10
1347;DHT22;667;48.796;9.480;2023-08-17T13:14:10;28.30;74.00
1347;DHT22;667;48.796;9.480;2023-08-17T13:16:35;28.30;74.00
1347;DHT22;667;48.796;9.480;2023-08-17T13:19:01;28.20;74.20
1347;DHT22;667;48.796;9.480;2023-08-17T13:21:26;28.20;74.70
1347;DHT22;667;48.796;9.480;2023-08-17T13:23:52;28.10;75.10
1347;DHT22;667;48.796;9.480;2023-08-17T13:26:18;28.10;75.50
1347;DHT22;667;48.796;9.480;2023-08-17T13:28:44;28.00;76.00
1347;DHT22;667;48.796;9.480;2023-08-17T13:31:09;27.90;76.70
1347;DHT22;667;48.796;9.480;2023-08-17T13:33:35;27.90;77.30
1347;DHT22;667;48.796;9.480;2023-08-17T13:36:00;27.80;77.70
1347;DHT22;667;48.796;9.480;2023-08-17T13:38:26;27.80;77.50
1347;DHT22;667;48.796;9.480;2023-08-17T13:40:52;27.70;77.50
1347;DHT22;667;48.796;9.480;2023-08-17T13:43:17;27.70;77.60
1347;DHT22;667;48.796;9.480;2023-08-17T13:45:43;27.60;78.20
1347;DHT22;667;48.796;9.480;2023-08-17T13:48:08;27.60;79.20
1347;DHT22;667;48.796;9.480;2023-08-17T13:50:38;27.50;80.10
1347;DHT22;667;48.796;9.480;2023-08-17T13:53:04;27.50;81.20
1347;DHT22;667;48.796;9.480;2023-08-17T13:55:30;27.40;81.70
1347;DHT22;667;48.796;9.480;2023-08-17T13:57:56;27.30;82.10
1347;DHT22;667;48.796;9.480;2023-08-17T14:00:25;27.20;83.10
1347;DHT22;667;48.796;9.480;2023-08-17T14:02:52;27.20;82.80
1347;DHT22;667;48.796;9.480;2023-08-17T14:05:17;27.00;83.10
1347;DHT22;667;48.796;9.480;2023-08-17T14:07:43;27.00;83.60
1347;DHT22;667;48.796;9.480;2023-08-17T14:10:08;26.90;84.00
1347;DHT22;667;48.796;9.480;2023-08-17T14:12:34;26.80;84.40
1347;DHT22;667;48.796;9.480;2023-08-17T14:15:00;26.80;84.80
1347;DHT22;667;48.796;9.480;2023-08-17T14:17:26;26.70;85.00
1347;DHT22;667;48.796;9.480;2023-08-17T14:19:51;26.70;85.20
1347;DHT22;667;48.796;9.480;2023-08-17T14:22:17;26.70;85.30
1347;DHT22;667;48.796;9.480;2023-08-17T14:24:42;26.70;85.40
1347;DHT22;667;48.796;9.480;2023-08-17T14:27:08;26.70;85.50
1347;DHT22;667;48.796;9.480;2023-08-17T14:29:34;26.60;85.60
1347;DHT22;667;48.796;9.480;2023-08-17T14:31:59;26.60;85.80
1347;DHT22;667;48.796;9.480;2023-08-17T14:34:25;26.70;86.00
1347;DHT22;667;48.796;9.480;2023-08-17T14:36:51;26.60;86.00
1347;DHT22;667;48.796;9.480;2023-08-17T14:39:16;26.60;86.30
1347;DHT22;667;48.796;9.480;2023-08-17T14:41:42;26.70;86.50
1347;DHT22;667;48.796;9.480;2023-08-17T14:44:08;26.70;86.50
1347;DHT22;667;48.796;9.480;2023-08-17T14:46:33;26.70;86.40
1347;DHT22;667;48.796;9.480;2023-08-17T14:49:00;26.70;86.20
1347;DHT22;667;48.796;9.480;2023-08-17T14:51:28;26.60;85.80
1347;DHT22;667;48.796;9.480;2023-08-17T14:53:54;26.60;85.40
1347;DHT22;667;48.796;9.480;2023-08-17T14:56:19;26.60;85.40
1347;DHT22;667;48.796;9.480;2023-08-17T14:58:45;26.60;85.60
1347;DHT22;667;48.796;9.480;2023-08-17T15:01:11;26.60;85.70
1347;DHT22;667;48.796;9.480;2023-08-17T15:03:37;26.60;86.00
1347;DHT22;667;48.796;9.480;2023-08-17T15:06:06;26.60;86.20
1347;DHT22;667;48.796;9.480;2023-08-17T15:08:31;26.60;86.20
1347;DHT22;667;48.796;9.480;2023-08-17T15:10:57;26.60;86.60
1347;DHT22;667;48.796;9.480;2023-08-17T15:13:27;26.60;87.10
1347;DHT22;667;48.796;9.480;2023-08-17T15:15:53;26.60;87.40
1347;DHT22;667;48.796;9.480;2023-08-17T15:18:18;26.60;87.70
1347;DHT22;667;48.796;9.480;2023-08-17T15:20:44;26.60;88.00
1347;DHT22;667;48.796;9.480;2023-08-17T15:23:09;26.50;88.20
1347;DHT22;667;48.796;9.480;2023-08-17T15:25:35;26.50;88.30
1347;DHT22;667;48.796;9.480;2023-08-17T15:28:01;26.50;88.50
1347;DHT22;667;48.796;9.480;2023-08-17T15:30:26;26.40;88.50
1347;DHT22;667;48.796;9.480;2023-08-17T15:32:52;26.40;88.80
1347;DHT22;667;48.796;9.480;2023-08-17T15:35:18;26.30;89.10
1347;DHT22;667;48.796;9.480;2023-08-17T15:37:43;26.30;89.30
1347;DHT22;667;48.796;9.480;2023-08-17T15:40:09;26.30;89.60
1347;DHT22;667;48.796;9.480;2023-08-17T15:42:36;26.20;89.60
1347;DHT22;667;48.796;9.480;2023-08-17T15:45:02;26.20;89.80
1347;DHT22;667;48.796;9.480;2023-08-17T15:47:28;26.20;90.00
1347;DHT22;667;48.796;9.480;2023-08-17T15:49:53;26.10;90.00
1347;DHT22;667;48.796;9.480;2023-08-17T15:52:19;26.10;90.30
1347;DHT22;667;48.796;9.480;2023-08-17T15:54:45;26.10;90.00
1347;DHT22;667;48.796;9.480;2023-08-17T15:57:10;26.00;90.10
1347;DHT22;667;48.796;9.480;2023-08-17T15:59:36;26.00;90.20
1347;DHT22;667;48.796;9.480;2023-08-17T16:02:04;26.00;90.20
1347;DHT22;667;48.796;9.480;2023-08-17T16:04:29;26.10;90.30
1347;DHT22;667;48.796;9.480;2023-08-17T16:06:55;26.10;90.30
1347;DHT22;667;48.796;9.480;2023-08-17T16:09:21;26.00;90.20
1347;DHT22;667;48.796;9.480;2023-08-17T16:11:47;26.10;90.30
1347;DHT22;667;48.796;9.480;2023-08-17T16:14:12;26.10;90.40
1347;DHT22;667;48.796;9.480;2023-08-17T16:16:38;26.10;90.40
1347;DHT22;667;48.796;9.480;2023-08-17T16:19:03;26.10;90.50
1347;DHT22;667;48.796;9.480;2023-08-17T16:21:29;26.10;90.50